• pl
  • eng

Awiacja
Komunikaty METAR z lotnisk wojskowych. 11:01 19.11.2018

METAR EPCE 191000Z 09011KT 9999 OVC015 04/02
Q1028 RMK 038 086 8/8 =

METAR EPDA 191000Z 08013KT 9999 SCT017 BKN059 06/03
Q1028 RMK 059 081 6/4 =

METAR EPDE 191000Z 06010KT 9999 BKN008 OVC020 00/M01 Q1024 RMK 002
090 8/5=

METAR EPIR 191000Z 05016KT 9999 SCT014 BKN037 05/02 Q1015 RMK 048 081
7/4=

METAR EPKS 191000Z 07015KT 9999 BKN013 BKN030 04/01 Q1023 RMK 041
080 7/5=

METAR EPLK 191000Z 08007KT 040V140 9999 BKN007 01/M00 Q1022 RMK 009
091 7/7=

METAR EPLY 191000Z 08010KT 9999 -RA SCT010 OVC015 02/01 Q1024 RMK 024
087 8/4=

METAR EPMB 191000Z 09013KT 9999 BKN015 OVC018 05/02 Q1028 RMK 045
086 8/5=

METAR EPMI 191000Z 07010KT 9000 -DZ BKN007 OVC010 03/02 Q1026 RMK
033 091 8/5=

METAR EPMM 191000Z 09016KT 9999 BKN013 02/00 Q1024 RMK 018 089 7/7=

METAR EPNA 191000Z 07012KT 8000 -RA BKN011 OVC020 03/02 Q1026 RMK 034
092 8/6=

METAR EPOK 191000Z 08017KT 9999 OVC016 06/02
Q1029 RMK 055 079 8/8 =

METAR EPPR 191000Z 06012KT 9999 BKN020 BKN040 05/02 Q1029 RMK 049 080
7/5=

METAR EPPW 191000Z 07014KT 9999 BKN017 03/01 Q1024
RMK 034 083 7/7 =

METAR EPRA 191000Z NIL=

METAR EPSN 191000Z 07010KT 8000 -SHRA SCT012CB BKN015 04/01 Q1026
RMK 044 080 7/3=

METAR EPTM 191000Z 07006KT 7000 BKN006 OVC011 01/M01 Q1023 RMK 005
092 8/6=
 METAR EPPW
Lokalizacja:EPPW Powidz
Czas:10:00 UTC
Średni kierunek wiatru:70 °
Średnia prędkość wiatru:14 węzłów
Widzialność:10 km i więcej
Pierwsza warstwa chmur:5/8 do 7/8, wysokość podstawy 1700 FT
Temperatura powietrza:3 °C
Temperatura punktu rosy:1 °C
Ciśnienie QNH:1024 hPa
Dokładna temperatura powietrza:3,4 °C
Dokładna wilgotność względna:83 %
Zachmurzenie przez wszystkie piętra chmur:7/8
Zachmurzenie przez chmury niskie:7/8
Awiacja.imgw.pl jest pogodowym serwisem informacyjnym
Instytutu Meteorologii i Gospodarki Wodnej Państwowego Instytutu Badawczego.
Copyright IMGW PIB 2009-2011© Wszelkie prawa zastrzeżone.